Portada
METAR-TAF:

METAR-TAF

Aeroports :

Ghriss, Algèria

latitud: 35-12N, longitud: 000-08E, altitud: 514 m

Observació

L'informe es va fer fa 25 minuts, a les 07:00 UTC
Vent calma
Temperatura 18°C
Humitat 94%
Pressió 1025 hPa
Visibilitat 10 km o més
Escasses núvols a una alçada de 3300 ft

METAR: DAOV 260700Z 00000KT 9999 FEW033 18/17 Q1025

Hora: 08:25 (07:25 UTC)

Pronòstic

L'informe es va fer fa 2 hores i 25 minuts, a les 05:00 UTC
Pronòstic vàlid del 26 a les 06 UTC al 26 a les 15 UTC
Vent 2 kt amb direcció variable
Visibilitat 10 km o més
sense núvols per sota de 1500 mi sense presència de cumulonimbus.
Probabilitat 30% :
Temporalment
l' 26 a les 06 UTC al 26 a les 08 UTC
Visibilitat: 4000 m
Núvols disperses a una alçada de 1000 ft
boirina
Evolucionant progressivament
l' 26 a les 09 UTC al 26 a les 12 UTC
Vent 12 kt del Nord

TAF: DAOV 260500Z 2606/2615 VRB02KT CAVOK PROB30 TEMPO 2606/2608 4000 BR SCT010 BECMG 2609/2612 35012KT

Observacions i pronòstics meteorològics de més de 4000 aeroports (METAR i TAF).

Les estacions disponibles són els punts grocs i vermells al mapa.

Posi el ratolí al punt desitjat per veure el nom de l'estació.

Feu clic per veure les observacions i els pronòstics meteorològics.

Per canviar el mapa: feu clic els botons verds amb una creu de color negre per apropar; al botó verd amb un guió per allunyar la imatge; o en les fletxes verdes per a mapes adjacents.


METAR-TAF: